sensor_id;sensor_type;location;lat;lon;timestamp;temperature;humidity
12452;DHT22;6291;48.924;12.204;2023-01-23T00:04:52;0.50;99.90
12452;DHT22;6291;48.924;12.204;2023-01-23T00:09:56;2.70;99.90
12452;DHT22;6291;48.924;12.204;2023-01-23T00:14:59;3.40;99.90
12452;DHT22;6291;48.924;12.204;2023-01-23T00:20:05;2.50;99.90
12452;DHT22;6291;48.924;12.204;2023-01-23T00:25:08;0.40;99.90
12452;DHT22;6291;48.924;12.204;2023-01-23T00:30:12;2.70;99.90
12452;DHT22;6291;48.924;12.204;2023-01-23T00:35:18;0.40;99.90
12452;DHT22;6291;48.924;12.204;2023-01-23T00:40:22;0.60;99.90
12452;DHT22;6291;48.924;12.204;2023-01-23T00:45:25;3.50;99.90
12452;DHT22;6291;48.924;12.204;2023-01-23T00:50:30;0.40;99.90
12452;DHT22;6291;48.924;12.204;2023-01-23T00:55:33;0.30;99.90
12452;DHT22;6291;48.924;12.204;2023-01-23T01:00:37;3.30;99.90
12452;DHT22;6291;48.924;12.204;2023-01-23T01:05:42;3.20;99.90
12452;DHT22;6291;48.924;12.204;2023-01-23T01:10:46;2.60;99.90
12452;DHT22;6291;48.924;12.204;2023-01-23T01:15:50;2.50;99.90
12452;DHT22;6291;48.924;12.204;2023-01-23T01:20:56;3.10;99.90
12452;DHT22;6291;48.924;12.204;2023-01-23T01:26:00;2.60;99.90
12452;DHT22;6291;48.924;12.204;2023-01-23T01:31:06;3.30;99.90
12452;DHT22;6291;48.924;12.204;2023-01-23T01:36:13;1.90;99.90
12452;DHT22;6291;48.924;12.204;2023-01-23T01:41:20;2.40;99.90
12452;DHT22;6291;48.924;12.204;2023-01-23T01:46:25;3.00;99.90
12452;DHT22;6291;48.924;12.204;2023-01-23T01:51:32;0.10;99.90
12452;DHT22;6291;48.924;12.204;2023-01-23T01:56:45;0.10;99.90
12452;DHT22;6291;48.924;12.204;2023-01-23T02:01:54;0.00;99.90
12452;DHT22;6291;48.924;12.204;2023-01-23T02:07:02;-0.10;99.90
12452;DHT22;6291;48.924;12.204;2023-01-23T02:12:07;3.10;99.90
12452;DHT22;6291;48.924;12.204;2023-01-23T02:17:11;0.00;99.90
12452;DHT22;6291;48.924;12.204;2023-01-23T02:22:24;2.10;99.90
12452;DHT22;6291;48.924;12.204;2023-01-23T02:27:29;3.20;99.90
12452;DHT22;6291;48.924;12.204;2023-01-23T02:32:33;2.40;99.90
12452;DHT22;6291;48.924;12.204;2023-01-23T02:37:39;1.60;99.90
12452;DHT22;6291;48.924;12.204;2023-01-23T02:42:48;2.80;99.90
12452;DHT22;6291;48.924;12.204;2023-01-23T02:47:53;2.40;99.90
12452;DHT22;6291;48.924;12.204;2023-01-23T02:52:56;2.60;99.90
12452;DHT22;6291;48.924;12.204;2023-01-23T02:58:03;2.00;99.90
12452;DHT22;6291;48.924;12.204;2023-01-23T03:03:20;-0.30;99.90
12452;DHT22;6291;48.924;12.204;2023-01-23T03:08:24;0.40;99.90
12452;DHT22;6291;48.924;12.204;2023-01-23T03:13:36;1.40;99.90
12452;DHT22;6291;48.924;12.204;2023-01-23T03:18:40;-1.00;99.90
12452;DHT22;6291;48.924;12.204;2023-01-23T03:23:55;1.30;99.90
12452;DHT22;6291;48.924;12.204;2023-01-23T03:29:00;-1.00;99.90
12452;DHT22;6291;48.924;12.204;2023-01-23T03:34:21;-1.10;99.90
12452;DHT22;6291;48.924;12.204;2023-01-23T03:39:25;0.50;99.90
12452;DHT22;6291;48.924;12.204;2023-01-23T03:44:49;2.50;99.90
12452;DHT22;6291;48.924;12.204;2023-01-23T03:49:56;-1.30;99.90
12452;DHT22;6291;48.924;12.204;2023-01-23T03:55:01;-1.40;99.90
12452;DHT22;6291;48.924;12.204;2023-01-23T04:00:07;-1.50;99.90
12452;DHT22;6291;48.924;12.204;2023-01-23T04:05:29;-1.50;99.90
12452;DHT22;6291;48.924;12.204;2023-01-23T04:10:33;-1.50;99.90
12452;DHT22;6291;48.924;12.204;2023-01-23T04:15:45;-1.50;99.90
12452;DHT22;6291;48.924;12.204;2023-01-23T04:20:50;-1.40;99.90
12452;DHT22;6291;48.924;12.204;2023-01-23T04:25:53;-1.40;99.90
12452;DHT22;6291;48.924;12.204;2023-01-23T04:30:58;-1.50;99.90
12452;DHT22;6291;48.924;12.204;2023-01-23T04:36:06;1.30;99.90
12452;DHT22;6291;48.924;12.204;2023-01-23T04:41:12;-1.60;99.90
12452;DHT22;6291;48.924;12.204;2023-01-23T04:46:19;-1.60;99.90
12452;DHT22;6291;48.924;12.204;2023-01-23T04:51:30;2.20;99.90
12452;DHT22;6291;48.924;12.204;2023-01-23T04:56:33;-1.40;99.90
12452;DHT22;6291;48.924;12.204;2023-01-23T05:01:41;1.10;99.90
12452;DHT22;6291;48.924;12.204;2023-01-23T05:06:45;2.10;99.90
12452;DHT22;6291;48.924;12.204;2023-01-23T05:11:50;2.20;99.90
12452;DHT22;6291;48.924;12.204;2023-01-23T05:16:57;2.40;99.90
12452;DHT22;6291;48.924;12.204;2023-01-23T05:22:15;1.60;99.90
12452;DHT22;6291;48.924;12.204;2023-01-23T05:27:20;-1.60;99.90
12452;DHT22;6291;48.924;12.204;2023-01-23T05:32:26;-1.70;99.90
12452;DHT22;6291;48.924;12.204;2023-01-23T05:37:42;-1.70;99.90
12452;DHT22;6291;48.924;12.204;2023-01-23T05:42:46;0.70;99.90
12452;DHT22;6291;48.924;12.204;2023-01-23T05:48:11;-1.60;99.90
12452;DHT22;6291;48.924;12.204;2023-01-23T05:53:15;0.30;99.90
12452;DHT22;6291;48.924;12.204;2023-01-23T05:58:18;1.40;99.90
12452;DHT22;6291;48.924;12.204;2023-01-23T06:03:38;-1.20;99.90
12452;DHT22;6291;48.924;12.204;2023-01-23T06:09:17;-1.10;99.90
12452;DHT22;6291;48.924;12.204;2023-01-23T06:14:21;-1.00;99.90
12452;DHT22;6291;48.924;12.204;2023-01-23T06:19:26;0.20;99.90
12452;DHT22;6291;48.924;12.204;2023-01-23T06:24:30;-0.80;99.90
12452;DHT22;6291;48.924;12.204;2023-01-23T06:29:34;-0.70;99.90
12452;DHT22;6291;48.924;12.204;2023-01-23T06:34:39;-0.70;99.90
12452;DHT22;6291;48.924;12.204;2023-01-23T06:39:44;2.50;99.90
12452;DHT22;6291;48.924;12.204;2023-01-23T06:44:49;2.90;99.90
12452;DHT22;6291;48.924;12.204;2023-01-23T06:49:56;2.50;99.90
12452;DHT22;6291;48.924;12.204;2023-01-23T06:55:03;2.40;99.90
12452;DHT22;6291;48.924;12.204;2023-01-23T07:00:09;-0.40;99.90
12452;DHT22;6291;48.924;12.204;2023-01-23T07:05:15;-0.40;99.90
12452;DHT22;6291;48.924;12.204;2023-01-23T07:10:20;-0.30;99.90
12452;DHT22;6291;48.924;12.204;2023-01-23T07:15:24;2.70;99.90
12452;DHT22;6291;48.924;12.204;2023-01-23T07:20:29;-0.20;99.90
12452;DHT22;6291;48.924;12.204;2023-01-23T07:25:34;-0.30;99.90
12452;DHT22;6291;48.924;12.204;2023-01-23T07:30:37;-2.40;99.90
12452;DHT22;6291;48.924;12.204;2023-01-23T07:35:42;2.20;99.90
12452;DHT22;6291;48.924;12.204;2023-01-23T07:40:45;0.30;99.90
12452;DHT22;6291;48.924;12.204;2023-01-23T07:45:49;2.80;99.90
12452;DHT22;6291;48.924;12.204;2023-01-23T07:50:54;1.60;99.90
12452;DHT22;6291;48.924;12.204;2023-01-23T07:55:57;2.10;99.90
12452;DHT22;6291;48.924;12.204;2023-01-23T08:01:07;0.10;99.90
12452;DHT22;6291;48.924;12.204;2023-01-23T08:06:12;0.20;99.90
12452;DHT22;6291;48.924;12.204;2023-01-23T08:11:15;3.40;99.90
12452;DHT22;6291;48.924;12.204;2023-01-23T08:16:19;3.40;99.90
12452;DHT22;6291;48.924;12.204;2023-01-23T08:21:24;2.30;99.90
12452;DHT22;6291;48.924;12.204;2023-01-23T08:26:28;0.90;99.90
12452;DHT22;6291;48.924;12.204;2023-01-23T08:31:32;1.90;45.50
12452;DHT22;6291;48.924;12.204;2023-01-23T08:36:40;0.70;99.90
12452;DHT22;6291;48.924;12.204;2023-01-23T08:41:44;3.30;69.20
12452;DHT22;6291;48.924;12.204;2023-01-23T08:46:47;3.20;97.40
12452;DHT22;6291;48.924;12.204;2023-01-23T08:51:52;1.60;99.90
12452;DHT22;6291;48.924;12.204;2023-01-23T08:56:55;2.30;30.30
12452;DHT22;6291;48.924;12.204;2023-01-23T09:01:59;2.60;1.00
12452;DHT22;6291;48.924;12.204;2023-01-23T09:07:04;2.30;1.00
12452;DHT22;6291;48.924;12.204;2023-01-23T09:12:08;2.90;1.00
12452;DHT22;6291;48.924;12.204;2023-01-23T09:17:11;2.70;1.00
12452;DHT22;6291;48.924;12.204;2023-01-23T09:22:16;2.50;1.00
12452;DHT22;6291;48.924;12.204;2023-01-23T09:27:20;3.20;1.00
12452;DHT22;6291;48.924;12.204;2023-01-23T09:32:23;2.20;99.90
12452;DHT22;6291;48.924;12.204;2023-01-23T09:37:30;2.30;1.00
12452;DHT22;6291;48.924;12.204;2023-01-23T09:43:07;3.10;99.90
12452;DHT22;6291;48.924;12.204;2023-01-23T09:48:21;3.30;99.90
12452;DHT22;6291;48.924;12.204;2023-01-23T09:53:34;3.30;1.00
12452;DHT22;6291;48.924;12.204;2023-01-23T09:58:42;2.50;99.90
12452;DHT22;6291;48.924;12.204;2023-01-23T10:03:45;2.40;1.00
12452;DHT22;6291;48.924;12.204;2023-01-23T10:09:02;2.40;1.00
12452;DHT22;6291;48.924;12.204;2023-01-23T10:14:23;2.60;1.00
12452;DHT22;6291;48.924;12.204;2023-01-23T10:19:56;2.90;1.00
12452;DHT22;6291;48.924;12.204;2023-01-23T10:25:12;3.10;1.00
12452;DHT22;6291;48.924;12.204;2023-01-23T10:30:21;3.40;99.90
12452;DHT22;6291;48.924;12.204;2023-01-23T10:35:31;3.60;99.90
12452;DHT22;6291;48.924;12.204;2023-01-23T10:40:38;4.00;1.00
12452;DHT22;6291;48.924;12.204;2023-01-23T10:46:09;4.30;1.00
12452;DHT22;6291;48.924;12.204;2023-01-23T10:51:44;4.40;1.00
12452;DHT22;6291;48.924;12.204;2023-01-23T10:56:53;4.60;1.00
12452;DHT22;6291;48.924;12.204;2023-01-23T11:02:19;4.60;1.00
12452;DHT22;6291;48.924;12.204;2023-01-23T11:07:25;4.20;1.00
12452;DHT22;6291;48.924;12.204;2023-01-23T11:12:33;4.30;1.00
12452;DHT22;6291;48.924;12.204;2023-01-23T11:17:37;4.40;1.00
12452;DHT22;6291;48.924;12.204;2023-01-23T11:22:41;5.00;1.00
12452;DHT22;6291;48.924;12.204;2023-01-23T11:27:55;5.10;1.00
12452;DHT22;6291;48.924;12.204;2023-01-23T11:33:07;5.70;1.00
12452;DHT22;6291;48.924;12.204;2023-01-23T11:38:16;6.90;1.00
12452;DHT22;6291;48.924;12.204;2023-01-23T11:43:33;7.30;1.00
12452;DHT22;6291;48.924;12.204;2023-01-23T11:49:03;6.90;1.00
12452;DHT22;6291;48.924;12.204;2023-01-23T11:54:23;6.90;1.00
12452;DHT22;6291;48.924;12.204;2023-01-23T11:59:55;6.90;1.00
12452;DHT22;6291;48.924;12.204;2023-01-23T12:05:49;6.50;1.00
12452;DHT22;6291;48.924;12.204;2023-01-23T12:11:10;5.80;1.00
12452;DHT22;6291;48.924;12.204;2023-01-23T12:16:21;5.30;1.00
12452;DHT22;6291;48.924;12.204;2023-01-23T12:21:30;5.40;1.00
12452;DHT22;6291;48.924;12.204;2023-01-23T12:26:38;5.30;1.00
12452;DHT22;6291;48.924;12.204;2023-01-23T12:31:53;5.60;1.00
12452;DHT22;6291;48.924;12.204;2023-01-23T12:42:39;5.60;1.00
12452;DHT22;6291;48.924;12.204;2023-01-23T12:47:52;5.70;1.00
12452;DHT22;6291;48.924;12.204;2023-01-23T12:53:06;5.90;1.00
12452;DHT22;6291;48.924;12.204;2023-01-23T12:58:15;6.20;1.00
12452;DHT22;6291;48.924;12.204;2023-01-23T13:08:55;6.70;1.00
12452;DHT22;6291;48.924;12.204;2023-01-23T13:14:21;6.60;1.00
12452;DHT22;6291;48.924;12.204;2023-01-23T13:19:41;5.80;1.00
12452;DHT22;6291;48.924;12.204;2023-01-23T13:25:10;5.70;1.00
12452;DHT22;6291;48.924;12.204;2023-01-23T13:30:40;5.80;1.00
12452;DHT22;6291;48.924;12.204;2023-01-23T13:35:53;5.70;1.00
12452;DHT22;6291;48.924;12.204;2023-01-23T13:41:27;5.40;1.00
12452;DHT22;6291;48.924;12.204;2023-01-23T13:46:40;5.40;1.00
12452;DHT22;6291;48.924;12.204;2023-01-23T13:52:01;5.40;1.00
12452;DHT22;6291;48.924;12.204;2023-01-23T13:57:39;5.60;1.00
12452;DHT22;6291;48.924;12.204;2023-01-23T14:03:08;5.60;1.00
12452;DHT22;6291;48.924;12.204;2023-01-23T14:08:50;5.10;1.00
12452;DHT22;6291;48.924;12.204;2023-01-23T14:14:08;4.80;1.00
12452;DHT22;6291;48.924;12.204;2023-01-23T14:19:51;4.60;1.00
12452;DHT22;6291;48.924;12.204;2023-01-23T14:25:16;4.70;1.00
12452;DHT22;6291;48.924;12.204;2023-01-23T14:30:22;4.50;1.00
12452;DHT22;6291;48.924;12.204;2023-01-23T14:35:29;4.00;1.00
12452;DHT22;6291;48.924;12.204;2023-01-23T14:40:34;4.10;1.00
12452;DHT22;6291;48.924;12.204;2023-01-23T14:45:57;3.90;1.00
12452;DHT22;6291;48.924;12.204;2023-01-23T14:51:05;3.70;1.00
12452;DHT22;6291;48.924;12.204;2023-01-23T14:56:11;3.70;1.00
12452;DHT22;6291;48.924;12.204;2023-01-23T15:01:15;3.60;1.00
12452;DHT22;6291;48.924;12.204;2023-01-23T15:06:20;3.50;1.00
12452;DHT22;6291;48.924;12.204;2023-01-23T15:11:26;3.80;1.00
12452;DHT22;6291;48.924;12.204;2023-01-23T15:16:34;3.50;1.00
12452;DHT22;6291;48.924;12.204;2023-01-23T15:21:40;3.30;1.00
12452;DHT22;6291;48.924;12.204;2023-01-23T15:26:56;3.70;1.00
12452;DHT22;6291;48.924;12.204;2023-01-23T15:32:00;3.30;1.00
12452;DHT22;6291;48.924;12.204;2023-01-23T15:37:05;2.90;1.00
12452;DHT22;6291;48.924;12.204;2023-01-23T15:42:30;2.90;23.60
12452;DHT22;6291;48.924;12.204;2023-01-23T15:47:33;2.80;72.80
12452;DHT22;6291;48.924;12.204;2023-01-23T15:52:45;3.00;99.90
12452;DHT22;6291;48.924;12.204;2023-01-23T15:57:50;2.70;99.90
12452;DHT22;6291;48.924;12.204;2023-01-23T16:02:55;5.40;99.90
12452;DHT22;6291;48.924;12.204;2023-01-23T16:07:59;2.60;99.90
12452;DHT22;6291;48.924;12.204;2023-01-23T16:13:05;2.70;99.90
12452;DHT22;6291;48.924;12.204;2023-01-23T16:18:10;3.40;99.90
12452;DHT22;6291;48.924;12.204;2023-01-23T16:23:17;2.50;99.90
12452;DHT22;6291;48.924;12.204;2023-01-23T16:28:24;2.50;99.90
12452;DHT22;6291;48.924;12.204;2023-01-23T16:33:27;2.50;99.90
12452;DHT22;6291;48.924;12.204;2023-01-23T16:38:31;2.50;1.00
12452;DHT22;6291;48.924;12.204;2023-01-23T16:43:36;2.50;1.00
12452;DHT22;6291;48.924;12.204;2023-01-23T16:48:39;3.20;1.00
12452;DHT22;6291;48.924;12.204;2023-01-23T16:53:49;2.40;99.90
12452;DHT22;6291;48.924;12.204;2023-01-23T16:58:55;2.30;1.00
12452;DHT22;6291;48.924;12.204;2023-01-23T17:03:59;2.30;1.00
12452;DHT22;6291;48.924;12.204;2023-01-23T17:09:04;2.30;1.00
12452;DHT22;6291;48.924;12.204;2023-01-23T17:14:14;2.30;1.00
12452;DHT22;6291;48.924;12.204;2023-01-23T17:19:22;2.20;1.00
12452;DHT22;6291;48.924;12.204;2023-01-23T17:24:26;3.40;1.00
12452;DHT22;6291;48.924;12.204;2023-01-23T17:29:31;2.30;99.90
12452;DHT22;6291;48.924;12.204;2023-01-23T17:34:38;2.10;1.00
12452;DHT22;6291;48.924;12.204;2023-01-23T17:39:52;2.00;1.00
12452;DHT22;6291;48.924;12.204;2023-01-23T17:44:58;1.90;1.00
12452;DHT22;6291;48.924;12.204;2023-01-23T17:50:03;1.80;1.00
12452;DHT22;6291;48.924;12.204;2023-01-23T17:55:12;1.70;99.90
12452;DHT22;6291;48.924;12.204;2023-01-23T18:00:20;1.60;1.00
12452;DHT22;6291;48.924;12.204;2023-01-23T18:05:25;1.60;1.00
12452;DHT22;6291;48.924;12.204;2023-01-23T18:10:30;1.60;13.80
12452;DHT22;6291;48.924;12.204;2023-01-23T18:15:43;1.60;1.00
12452;DHT22;6291;48.924;12.204;2023-01-23T18:20:53;2.70;1.00
12452;DHT22;6291;48.924;12.204;2023-01-23T18:26:04;1.50;99.90
12452;DHT22;6291;48.924;12.204;2023-01-23T18:31:17;1.40;99.90
12452;DHT22;6291;48.924;12.204;2023-01-23T18:36:32;1.30;1.00
12452;DHT22;6291;48.924;12.204;2023-01-23T18:41:44;1.20;99.90
12452;DHT22;6291;48.924;12.204;2023-01-23T18:46:51;1.30;31.80
12452;DHT22;6291;48.924;12.204;2023-01-23T18:52:04;1.20;1.00
12452;DHT22;6291;48.924;12.204;2023-01-23T18:57:19;1.30;99.90
12452;DHT22;6291;48.924;12.204;2023-01-23T19:02:34;2.40;1.00
12452;DHT22;6291;48.924;12.204;2023-01-23T19:07:39;1.60;99.90
12452;DHT22;6291;48.924;12.204;2023-01-23T19:12:51;1.70;99.90
12452;DHT22;6291;48.924;12.204;2023-01-23T19:18:05;2.20;1.00
12452;DHT22;6291;48.924;12.204;2023-01-23T19:23:21;1.90;99.90
12452;DHT22;6291;48.924;12.204;2023-01-23T19:28:27;3.40;1.00
12452;DHT22;6291;48.924;12.204;2023-01-23T19:33:32;1.90;1.00
12452;DHT22;6291;48.924;12.204;2023-01-23T19:38:35;1.90;1.00
12452;DHT22;6291;48.924;12.204;2023-01-23T19:43:39;4.10;99.90
12452;DHT22;6291;48.924;12.204;2023-01-23T19:48:44;3.20;8.90
12452;DHT22;6291;48.924;12.204;2023-01-23T19:53:47;2.40;99.90
12452;DHT22;6291;48.924;12.204;2023-01-23T19:58:51;2.10;99.90
12452;DHT22;6291;48.924;12.204;2023-01-23T20:03:56;2.10;1.00
12452;DHT22;6291;48.924;12.204;2023-01-23T20:09:00;2.90;99.90
12452;DHT22;6291;48.924;12.204;2023-01-23T20:14:05;2.10;99.90
12452;DHT22;6291;48.924;12.204;2023-01-23T20:19:11;3.10;99.90
12452;DHT22;6291;48.924;12.204;2023-01-23T20:24:15;4.10;99.90
12452;DHT22;6291;48.924;12.204;2023-01-23T20:29:19;2.10;17.50
12452;DHT22;6291;48.924;12.204;2023-01-23T20:34:24;2.90;99.90
12452;DHT22;6291;48.924;12.204;2023-01-23T20:39:27;2.20;99.90
12452;DHT22;6291;48.924;12.204;2023-01-23T20:44:30;2.20;99.90
12452;DHT22;6291;48.924;12.204;2023-01-23T20:49:35;2.20;99.90
12452;DHT22;6291;48.924;12.204;2023-01-23T20:54:38;2.30;99.90
12452;DHT22;6291;48.924;12.204;2023-01-23T20:59:42;2.20;99.90
12452;DHT22;6291;48.924;12.204;2023-01-23T21:04:46;2.20;99.90
12452;DHT22;6291;48.924;12.204;2023-01-23T21:09:50;2.10;1.00
12452;DHT22;6291;48.924;12.204;2023-01-23T21:14:53;5.30;1.00
12452;DHT22;6291;48.924;12.204;2023-01-23T21:19:58;5.20;1.00
12452;DHT22;6291;48.924;12.204;2023-01-23T21:25:02;5.80;1.00
12452;DHT22;6291;48.924;12.204;2023-01-23T21:30:06;2.20;1.00
12452;DHT22;6291;48.924;12.204;2023-01-23T21:35:11;2.10;1.00
12452;DHT22;6291;48.924;12.204;2023-01-23T21:40:15;2.10;1.00
12452;DHT22;6291;48.924;12.204;2023-01-23T21:45:18;2.10;1.00
12452;DHT22;6291;48.924;12.204;2023-01-23T21:50:23;2.10;1.00
12452;DHT22;6291;48.924;12.204;2023-01-23T21:55:27;2.10;1.00
12452;DHT22;6291;48.924;12.204;2023-01-23T22:00:31;2.20;1.00
12452;DHT22;6291;48.924;12.204;2023-01-23T22:05:57;2.10;1.00
12452;DHT22;6291;48.924;12.204;2023-01-23T22:11:02;2.10;99.90
12452;DHT22;6291;48.924;12.204;2023-01-23T22:16:06;2.00;99.90
12452;DHT22;6291;48.924;12.204;2023-01-23T22:21:11;1.90;6.10
12452;DHT22;6291;48.924;12.204;2023-01-23T22:26:15;1.90;99.90
12452;DHT22;6291;48.924;12.204;2023-01-23T22:31:19;1.80;99.90
12452;DHT22;6291;48.924;12.204;2023-01-23T22:36:24;3.50;20.20
12452;DHT22;6291;48.924;12.204;2023-01-23T22:41:27;1.70;1.00
12452;DHT22;6291;48.924;12.204;2023-01-23T22:46:31;1.60;47.60
12452;DHT22;6291;48.924;12.204;2023-01-23T22:51:36;1.60;1.00
12452;DHT22;6291;48.924;12.204;2023-01-23T22:56:39;1.50;95.60
12452;DHT22;6291;48.924;12.204;2023-01-23T23:01:48;1.50;1.00
12452;DHT22;6291;48.924;12.204;2023-01-23T23:06:53;1.60;38.70
12452;DHT22;6291;48.924;12.204;2023-01-23T23:11:56;1.50;1.00
12452;DHT22;6291;48.924;12.204;2023-01-23T23:17:00;1.60;99.90
12452;DHT22;6291;48.924;12.204;2023-01-23T23:22:05;1.70;99.90
12452;DHT22;6291;48.924;12.204;2023-01-23T23:27:08;1.70;99.90
12452;DHT22;6291;48.924;12.204;2023-01-23T23:32:12;1.80;99.90
12452;DHT22;6291;48.924;12.204;2023-01-23T23:37:16;1.90;99.90
12452;DHT22;6291;48.924;12.204;2023-01-23T23:42:20;1.90;1.00
12452;DHT22;6291;48.924;12.204;2023-01-23T23:47:23;2.90;1.00
12452;DHT22;6291;48.924;12.204;2023-01-23T23:52:28;2.10;1.00
12452;DHT22;6291;48.924;12.204;2023-01-23T23:57:31;1.90;99.90
